CheckWX is a tool to help pilots better visualize weather data.  It is not intended as a substitute for an official pre-flight weather briefing.

04:32:19 UTC

DAUL METAR
Laghouat Airport
Laghouat, Algeria
Current

2 hours ago

DAUL 020300Z 34020KT 9999 SCT040 13/04 Q1011
Observed
Apr-2 @ 03:00 UTC
Wind
  • 340° at 20 KTS
Visibility
10,000+ meters
Flight Rules
VFR
Cloud Levels
  • Scattered at 4,000' AGL
Temperature
13°C / 55°F
Dewpoint
C / 39°F
Humidity
55%
Altimeter
29.85" Hg
Pressure
1010.92 hPa
Previous

3 hours ago

DAUL 020200Z 36016KT 9999 SCT040 14/03 Q1011
Observed
Apr-2 @ 02:00 UTC
Wind
  • 360° at 16 KTS
Visibility
10,000+ meters
Flight Rules
VFR
Cloud Levels
  • Scattered at 4,000' AGL
Temperature
14°C / 57°F
Dewpoint
C / 37°F
Humidity
48%
Altimeter
29.85" Hg
Pressure
1010.92 hPa
Previous

6 hours ago

DAUL 012300Z 02016KT 8000 NSC 16/03 Q1011
Observed
Apr-1 @ 23:00 UTC
Wind
  • 020° at 16 KTS
Visibility
7998 meters
Flight Rules
MVFR
Cloud Levels
  • Clear skies
Temperature
16°C / 61°F
Dewpoint
C / 37°F
Humidity
42%
Altimeter
29.85" Hg
Pressure
1010.92 hPa